createdAt,value
2019-05-07T00:02:15.522Z,48.32
2019-05-07T00:04:48.671Z,48.21
2019-05-07T00:07:24.204Z,48.14
2019-05-07T00:09:57.039Z,48.10
2019-05-07T00:12:32.301Z,48.12
2019-05-07T00:15:05.036Z,48.23
2019-05-07T00:17:38.078Z,48.26
2019-05-07T00:20:12.722Z,48.39
2019-05-07T00:22:44.884Z,48.22
2019-05-07T00:25:17.350Z,48.20
2019-05-07T00:27:52.174Z,48.19
2019-05-07T00:30:23.882Z,48.38
2019-05-07T00:32:56.370Z,48.43
2019-05-07T00:35:32.578Z,48.42
2019-05-07T00:38:08.817Z,48.33
2019-05-07T00:41:02.958Z,48.38
2019-05-07T00:43:38.321Z,48.35
2019-05-07T00:46:22.883Z,48.20
2019-05-07T00:48:57.449Z,48.11
2019-05-07T00:51:33.324Z,48.04
2019-05-07T00:54:07.837Z,48.02
2019-05-07T00:56:40.255Z,48.01
2019-05-07T00:59:13.195Z,48.09
2019-05-07T01:01:45.698Z,48.06
2019-05-07T01:04:18.350Z,48.06
2019-05-07T01:06:52.995Z,48.08
2019-05-07T01:09:25.328Z,48.06
2019-05-07T01:11:58.105Z,48.04
2019-05-07T01:14:32.534Z,47.96
2019-05-07T01:17:05.036Z,47.92
2019-05-07T01:19:38.294Z,47.88
2019-05-07T01:22:12.617Z,47.87
2019-05-07T01:24:45.328Z,47.84
2019-05-07T01:27:18.541Z,47.86
2019-05-07T01:29:52.747Z,47.81
2019-05-07T01:32:34.704Z,47.82
2019-05-07T01:35:15.462Z,47.86
2019-05-07T01:37:48.552Z,47.86
2019-05-07T01:40:22.802Z,47.89
2019-05-07T01:42:56.175Z,47.90
2019-05-07T01:45:42.226Z,47.95
2019-05-07T01:48:04.434Z,47.94
2019-05-07T01:50:37.216Z,47.92
2019-05-07T01:53:12.224Z,47.94
2019-05-07T01:55:45.159Z,47.96
2019-05-07T01:58:17.543Z,47.92
2019-05-07T02:00:50.015Z,47.86
2019-05-07T02:03:32.872Z,47.83
2019-05-07T02:06:14.702Z,47.78
2019-05-07T02:08:53.138Z,47.78
2019-05-07T02:11:33.645Z,47.81
2019-05-07T02:14:06.630Z,47.81
2019-05-07T02:16:41.926Z,47.73
2019-05-07T02:19:14.382Z,47.65
2019-05-07T02:21:47.018Z,47.62
2019-05-07T02:24:19.403Z,47.58
2019-05-07T02:26:52.133Z,47.52
2019-05-07T02:29:24.605Z,47.48
2019-05-07T02:31:57.444Z,47.48
2019-05-07T02:34:29.820Z,47.48
2019-05-07T02:37:04.015Z,47.50
2019-05-07T02:39:44.359Z,47.52
2019-05-07T02:42:17.166Z,47.52
2019-05-07T02:45:06.654Z,47.51
2019-05-07T02:47:39.574Z,47.49
2019-05-07T02:50:18.967Z,47.46
2019-05-07T02:53:04.305Z,47.38
2019-05-07T02:55:43.429Z,47.32
2019-05-07T02:58:14.953Z,47.32
2019-05-07T03:00:47.847Z,47.34
2019-05-07T03:03:20.579Z,47.32
2019-05-07T03:05:53.726Z,47.29
2019-05-07T03:08:27.514Z,47.31
2019-05-07T03:11:03.034Z,47.31
2019-05-07T03:13:34.436Z,47.28
2019-05-07T03:16:07.355Z,47.25
2019-05-07T03:18:39.933Z,47.23
2019-05-07T03:21:19.234Z,47.18
2019-05-07T03:24:04.354Z,47.14
2019-05-07T03:26:43.459Z,47.14
2019-05-07T03:29:23.640Z,47.16
2019-05-07T03:32:16.017Z,47.13
2019-05-07T03:35:08.506Z,47.12
2019-05-07T03:37:44.207Z,47.14
2019-05-07T03:40:15.917Z,47.11
2019-05-07T03:42:48.510Z,47.05
2019-05-07T03:45:37.922Z,47.00
2019-05-07T03:48:32.984Z,46.97
2019-05-07T03:51:04.716Z,46.93
2019-05-07T03:53:37.107Z,46.91
2019-05-07T03:56:12.929Z,46.87
2019-05-07T03:58:44.295Z,46.88
2019-05-07T04:01:16.892Z,46.87
2019-05-07T04:03:49.680Z,46.90
2019-05-07T04:06:23.389Z,46.94
2019-05-07T04:08:56.253Z,46.96
2019-05-07T04:11:28.863Z,46.98
2019-05-07T04:14:04.080Z,46.95
2019-05-07T04:16:37.893Z,46.96
2019-05-07T04:19:13.258Z,46.93
2019-05-07T04:21:44.576Z,46.93
2019-05-07T04:24:24.220Z,46.90
2019-05-07T04:27:03.789Z,46.84
2019-05-07T04:29:42.591Z,46.79
2019-05-07T04:32:15.984Z,46.72
2019-05-07T04:35:05.486Z,46.64
2019-05-07T04:37:38.353Z,46.64
2019-05-07T04:40:13.254Z,46.64
2019-05-07T04:42:45.120Z,46.63
2019-05-07T04:45:17.871Z,46.66
2019-05-07T04:47:53.562Z,46.69
2019-05-07T04:50:39.255Z,46.66
2019-05-07T04:53:02.771Z,46.64
2019-05-07T04:55:35.686Z,46.61
2019-05-07T04:58:09.111Z,46.61
2019-05-07T05:00:43.201Z,46.59
2019-05-07T05:03:20.038Z,46.63
2019-05-07T05:05:53.452Z,46.66
2019-05-07T05:08:26.209Z,46.66
2019-05-07T05:10:58.990Z,46.69
2019-05-07T05:13:33.156Z,46.74
2019-05-07T05:16:24.939Z,46.76
2019-05-07T05:18:58.906Z,46.73
2019-05-07T05:21:41.968Z,46.65
2019-05-07T05:24:18.774Z,46.62
2019-05-07T05:26:52.562Z,46.63
2019-05-07T05:29:25.013Z,46.66
2019-05-07T05:31:57.761Z,46.43
2019-05-07T05:34:32.752Z,46.22
2019-05-07T05:37:04.967Z,46.14
2019-05-07T05:39:37.688Z,46.05
2019-05-07T05:42:26.197Z,46.11
2019-05-07T05:44:58.838Z,46.01
2019-05-07T05:47:32.966Z,45.76
2019-05-07T05:50:07.351Z,45.61
2019-05-07T05:52:53.780Z,45.36
2019-05-07T05:55:26.588Z,45.15
2019-05-07T05:58:15.681Z,44.79
2019-05-07T06:01:04.141Z,44.47
2019-05-07T06:04:02.982Z,44.25
2019-05-07T06:06:42.353Z,44.12
2019-05-07T06:09:46.066Z,44.01
2019-05-07T06:12:32.942Z,44.01
2019-05-07T06:15:22.080Z,44.05
2019-05-07T06:18:18.770Z,43.86
2019-05-07T06:21:02.894Z,43.40
2019-05-07T06:23:42.031Z,43.25
2019-05-07T06:26:15.489Z,43.21
2019-05-07T06:28:48.321Z,43.15
2019-05-07T06:31:22.161Z,42.98
2019-05-07T06:33:55.985Z,42.72
2019-05-07T06:36:32.695Z,42.69
2019-05-07T06:39:15.212Z,42.78
2019-05-07T06:42:04.764Z,42.92
2019-05-07T06:44:37.590Z,42.89
2019-05-07T06:47:12.483Z,42.83
2019-05-07T06:49:44.962Z,42.79
2019-05-07T06:52:17.754Z,42.61
2019-05-07T06:54:52.323Z,42.42
2019-05-07T06:57:27.059Z,42.40
2019-05-07T07:00:02.857Z,42.31
2019-05-07T07:02:52.359Z,42.17
2019-05-07T07:05:42.618Z,42.28
2019-05-07T07:08:24.298Z,42.21
2019-05-07T07:11:31.976Z,42.26
2019-05-07T07:14:04.649Z,42.35
2019-05-07T07:16:37.186Z,42.42
2019-05-07T07:19:12.354Z,42.25
2019-05-07T07:21:44.479Z,42.14
2019-05-07T07:24:17.063Z,42.14
2019-05-07T07:26:49.630Z,42.19
2019-05-07T07:29:24.133Z,41.98
2019-05-07T07:31:59.589Z,41.91
2019-05-07T07:34:34.881Z,41.93
2019-05-07T07:37:17.953Z,41.87
2019-05-07T07:39:52.445Z,41.75
2019-05-07T07:42:25.512Z,41.65
2019-05-07T07:45:16.245Z,41.52
2019-05-07T07:47:49.721Z,41.49
2019-05-07T07:50:23.509Z,41.17
2019-05-07T07:52:55.907Z,41.12
2019-05-07T07:55:39.785Z,41.02
2019-05-07T07:58:32.209Z,40.99
2019-05-07T08:01:12.732Z,40.71
2019-05-07T08:03:45.181Z,40.59
2019-05-07T08:06:17.737Z,40.65
2019-05-07T08:08:50.384Z,40.67
2019-05-07T08:11:23.081Z,40.91
2019-05-07T08:13:56.567Z,41.11
2019-05-07T08:16:33.747Z,41.10
2019-05-07T08:19:18.314Z,41.24
2019-05-07T08:21:42.143Z,41.33
2019-05-07T08:24:14.941Z,41.54
2019-05-07T08:26:47.850Z,41.66
2019-05-07T08:29:22.341Z,41.75
2019-05-07T08:32:12.622Z,41.82
2019-05-07T08:35:07.667Z,41.91
2019-05-07T08:37:42.593Z,42.06
2019-05-07T08:40:14.950Z,42.12
2019-05-07T08:42:47.504Z,42.13
2019-05-07T08:45:38.081Z,42.00
2019-05-07T08:48:15.941Z,41.76
2019-05-07T08:50:48.829Z,41.68
2019-05-07T08:53:22.518Z,41.78
2019-05-07T08:55:55.484Z,41.79
2019-05-07T08:58:28.125Z,41.88
2019-05-07T09:01:03.003Z,41.98
2019-05-07T09:03:44.578Z,41.98
2019-05-07T09:06:21.983Z,42.03
2019-05-07T09:08:54.014Z,41.98
2019-05-07T09:11:26.538Z,41.80
2019-05-07T09:13:59.074Z,41.82
2019-05-07T09:16:32.012Z,41.99
2019-05-07T09:19:04.554Z,42.04
2019-05-07T09:21:37.547Z,42.11
2019-05-07T09:24:12.190Z,42.26
2019-05-07T09:26:58.222Z,42.44
2019-05-07T09:29:42.581Z,42.53
2019-05-07T09:32:39.441Z,42.57
2019-05-07T09:35:16.058Z,42.49
2019-05-07T09:37:48.434Z,42.37
2019-05-07T09:40:21.822Z,42.43
2019-05-07T09:42:55.687Z,42.59
2019-05-07T09:45:32.642Z,42.69
2019-05-07T09:48:05.783Z,42.74
2019-05-07T09:50:38.319Z,42.73
2019-05-07T09:53:12.657Z,42.70
2019-05-07T09:55:44.926Z,42.69
2019-05-07T09:58:17.304Z,42.66
2019-05-07T10:00:50.023Z,42.66
2019-05-07T10:03:22.887Z,42.72
2019-05-07T10:05:55.545Z,42.76
2019-05-07T10:08:28.109Z,42.79
2019-05-07T10:11:02.684Z,42.65
2019-05-07T10:13:42.028Z,42.55
2019-05-07T10:16:18.149Z,42.41
2019-05-07T10:18:52.241Z,42.52
2019-05-07T10:21:24.841Z,42.58
2019-05-07T10:23:57.679Z,42.59
2019-05-07T10:26:32.139Z,42.57
2019-05-07T10:29:05.460Z,42.50
2019-05-07T10:31:39.669Z,42.44
2019-05-07T10:34:12.979Z,42.31
2019-05-07T10:36:46.381Z,42.16
2019-05-07T10:39:19.334Z,42.19
2019-05-07T10:42:01.822Z,42.33
2019-05-07T10:44:43.299Z,42.43
2019-05-07T10:47:48.764Z,42.49
2019-05-07T10:50:36.293Z,42.58
2019-05-07T10:53:02.237Z,42.54
2019-05-07T10:55:35.134Z,42.40
2019-05-07T10:58:13.934Z,42.28
2019-05-07T11:00:46.669Z,42.23
2019-05-07T11:03:19.212Z,42.16
2019-05-07T11:05:54.128Z,42.07
2019-05-07T11:08:26.757Z,42.10
2019-05-07T11:10:59.455Z,42.08
2019-05-07T11:13:32.302Z,42.09
2019-05-07T11:16:09.262Z,42.05
2019-05-07T11:18:51.616Z,42.02
2019-05-07T11:21:33.634Z,41.85
2019-05-07T11:24:07.247Z,41.81
2019-05-07T11:26:41.996Z,41.79
2019-05-07T11:29:15.468Z,41.86
2019-05-07T11:31:52.499Z,41.97
2019-05-07T11:34:25.998Z,42.02
2019-05-07T11:36:59.029Z,42.07
2019-05-07T11:39:33.201Z,42.18
2019-05-07T11:42:17.936Z,42.14
2019-05-07T11:44:52.174Z,42.12
2019-05-07T11:47:29.303Z,41.95
2019-05-07T11:50:22.473Z,41.77
2019-05-07T11:53:00.812Z,41.64
2019-05-07T11:55:34.609Z,41.61
2019-05-07T11:58:08.688Z,41.64
2019-05-07T12:01:05.059Z,41.63
2019-05-07T12:03:38.537Z,41.49
2019-05-07T12:06:12.434Z,41.36
2019-05-07T12:08:51.396Z,41.31
2019-05-07T12:11:21.875Z,41.29
2019-05-07T12:13:57.258Z,41.29
2019-05-07T12:16:29.319Z,41.26
2019-05-07T12:19:02.448Z,41.23
2019-05-07T12:21:36.010Z,41.22
2019-05-07T12:24:08.858Z,41.05
2019-05-07T12:26:42.858Z,40.88
2019-05-07T12:29:15.450Z,40.70
2019-05-07T12:32:19.012Z,40.67
2019-05-07T12:34:56.566Z,40.76
2019-05-07T12:37:29.206Z,40.79
2019-05-07T12:40:01.976Z,40.87
2019-05-07T12:42:34.686Z,40.85
2019-05-07T12:45:08.088Z,40.88
2019-05-07T12:47:42.185Z,40.88
2019-05-07T12:50:15.305Z,40.92
2019-05-07T12:53:02.065Z,40.80
2019-05-07T12:55:42.864Z,40.79
2019-05-07T12:58:16.050Z,40.79
2019-05-07T13:00:54.088Z,40.75
2019-05-07T13:03:42.652Z,40.73
2019-05-07T13:06:14.865Z,40.72
2019-05-07T13:08:47.944Z,40.64
2019-05-07T13:11:22.176Z,40.53
2019-05-07T13:13:55.344Z,40.53
2019-05-07T13:16:27.993Z,40.52
2019-05-07T13:19:01.922Z,40.52
2019-05-07T13:21:46.412Z,40.43
2019-05-07T13:24:09.541Z,40.35
2019-05-07T13:26:42.720Z,40.28
2019-05-07T13:29:15.993Z,40.29
2019-05-07T13:31:53.898Z,40.29
2019-05-07T13:34:24.772Z,40.21
2019-05-07T13:37:02.635Z,40.15
2019-05-07T13:39:43.094Z,40.05
2019-05-07T13:42:33.183Z,39.99
2019-05-07T13:45:16.716Z,39.84
2019-05-07T13:48:14.652Z,39.83
2019-05-07T13:50:47.909Z,39.94
2019-05-07T13:53:22.700Z,39.95
2019-05-07T13:55:55.903Z,39.96
2019-05-07T13:58:28.459Z,39.93
2019-05-07T14:01:08.948Z,39.81
2019-05-07T14:03:41.524Z,39.83
2019-05-07T14:06:16.815Z,39.89
2019-05-07T14:08:51.699Z,39.92
2019-05-07T14:11:23.667Z,39.90
2019-05-07T14:13:56.826Z,39.98
2019-05-07T14:16:32.460Z,39.98
2019-05-07T14:19:07.321Z,39.94
2019-05-07T14:21:41.966Z,40.01
2019-05-07T14:24:14.845Z,40.01
2019-05-07T14:26:47.906Z,40.03
2019-05-07T14:29:24.853Z,40.08
2019-05-07T14:32:19.050Z,40.14
2019-05-07T14:35:08.427Z,40.21
2019-05-07T14:37:44.509Z,40.24
2019-05-07T14:40:18.254Z,40.25
2019-05-07T14:42:56.181Z,40.28
2019-05-07T14:45:32.635Z,40.32
2019-05-07T14:48:05.388Z,40.34
2019-05-07T14:50:37.885Z,40.36
2019-05-07T14:53:11.977Z,40.35
2019-05-07T14:55:45.014Z,40.41
2019-05-07T14:58:17.530Z,40.55
2019-05-07T15:00:51.785Z,40.74
2019-05-07T15:03:24.186Z,40.83
2019-05-07T15:05:56.865Z,40.93
2019-05-07T15:08:32.184Z,40.97
2019-05-07T15:11:04.583Z,41.00
2019-05-07T15:13:37.670Z,41.04
2019-05-07T15:16:12.425Z,41.12
2019-05-07T15:18:56.374Z,41.18
2019-05-07T15:21:28.986Z,41.21
2019-05-07T15:24:02.309Z,41.22
2019-05-07T15:26:36.715Z,41.35
2019-05-07T15:29:12.790Z,41.39
2019-05-07T15:32:04.688Z,41.39
2019-05-07T15:34:37.283Z,41.51
2019-05-07T15:37:12.145Z,41.58
2019-05-07T15:39:44.630Z,41.59
2019-05-07T15:42:17.006Z,41.56
2019-05-07T15:44:49.720Z,41.61
2019-05-07T15:47:28.038Z,41.63
2019-05-07T15:50:00.696Z,41.63
2019-05-07T15:52:58.254Z,41.62
2019-05-07T15:55:25.484Z,41.65
2019-05-07T15:57:58.764Z,41.66
2019-05-07T16:00:33.467Z,41.65
2019-05-07T16:03:27.636Z,41.74
2019-05-07T16:06:03.581Z,41.75
2019-05-07T16:08:37.998Z,41.98
2019-05-07T16:11:12.438Z,42.00
2019-05-07T16:13:49.404Z,42.04
2019-05-07T16:16:26.975Z,42.04
2019-05-07T16:19:12.623Z,42.12
2019-05-07T16:21:45.634Z,42.12
2019-05-07T16:24:18.288Z,42.12
2019-05-07T16:26:52.370Z,42.06
2019-05-07T16:29:25.098Z,42.07
2019-05-07T16:31:57.797Z,42.15
2019-05-07T16:34:32.396Z,42.16
2019-05-07T16:37:07.298Z,42.16
2019-05-07T16:39:38.833Z,42.15
2019-05-07T16:42:11.562Z,42.16
2019-05-07T16:44:44.601Z,42.17
2019-05-07T16:47:17.545Z,42.21
2019-05-07T16:49:50.224Z,42.21
2019-05-07T16:52:22.977Z,42.20
2019-05-07T16:54:55.395Z,42.18
2019-05-07T16:57:53.013Z,42.18
2019-05-07T17:00:33.340Z,42.12
2019-05-07T17:03:08.068Z,42.09
2019-05-07T17:05:42.894Z,42.07
2019-05-07T17:08:28.761Z,42.07
2019-05-07T17:11:03.087Z,42.10
2019-05-07T17:13:36.173Z,42.15
2019-05-07T17:16:09.108Z,42.16
2019-05-07T17:18:42.462Z,42.21
2019-05-07T17:21:14.900Z,42.24
2019-05-07T17:23:47.817Z,42.24
2019-05-07T17:26:23.028Z,42.27
2019-05-07T17:28:55.001Z,42.29
2019-05-07T17:31:27.738Z,42.38
2019-05-07T17:34:02.243Z,42.39
2019-05-07T17:36:34.799Z,42.46
2019-05-07T17:39:11.976Z,42.52
2019-05-07T17:41:43.974Z,42.59
2019-05-07T17:44:16.518Z,42.67
2019-05-07T17:46:48.870Z,42.72
2019-05-07T17:49:21.944Z,42.78
2019-05-07T17:51:54.348Z,42.78
2019-05-07T17:54:27.406Z,42.83
2019-05-07T17:57:02.001Z,42.83
2019-05-07T17:59:34.194Z,42.85
2019-05-07T18:02:42.153Z,42.89
2019-05-07T18:05:15.553Z,42.97
2019-05-07T18:07:48.184Z,42.99
2019-05-07T18:10:21.756Z,43.02
2019-05-07T18:12:56.070Z,43.08
2019-05-07T18:15:28.739Z,43.12
2019-05-07T18:18:05.276Z,43.14
2019-05-07T18:20:38.086Z,43.21
2019-05-07T18:23:16.640Z,43.21
2019-05-07T18:25:45.874Z,43.22
2019-05-07T18:28:18.850Z,43.21
2019-05-07T18:30:51.465Z,43.21
2019-05-07T18:33:52.423Z,43.24
2019-05-07T18:36:25.183Z,43.26
2019-05-07T18:38:58.379Z,43.30
2019-05-07T18:41:32.656Z,43.35
2019-05-07T18:44:12.358Z,43.42
2019-05-07T18:46:41.897Z,43.41
2019-05-07T18:49:15.642Z,43.43
2019-05-07T18:51:49.546Z,43.43
2019-05-07T18:54:30.460Z,43.46
2019-05-07T18:57:02.325Z,43.57
2019-05-07T18:59:37.514Z,43.59
2019-05-07T19:02:11.756Z,43.59
2019-05-07T19:04:44.232Z,43.58
2019-05-07T19:07:16.727Z,43.56
2019-05-07T19:09:49.259Z,43.63
2019-05-07T19:12:25.267Z,43.67
2019-05-07T19:14:58.593Z,43.73
2019-05-07T19:17:34.815Z,43.77
2019-05-07T19:20:08.680Z,43.80
2019-05-07T19:22:42.443Z,43.82
2019-05-07T19:25:15.878Z,43.84
2019-05-07T19:27:48.416Z,43.89
2019-05-07T19:30:21.788Z,43.96
2019-05-07T19:32:54.382Z,43.93
2019-05-07T19:35:26.997Z,43.92
2019-05-07T19:37:59.526Z,43.93
2019-05-07T19:40:32.543Z,43.94
2019-05-07T19:43:06.259Z,43.92
2019-05-07T19:45:38.899Z,43.93
2019-05-07T19:48:12.476Z,43.93
2019-05-07T19:50:44.887Z,43.91
2019-05-07T19:53:20.386Z,43.92
2019-05-07T19:56:15.980Z,43.96
2019-05-07T19:58:48.872Z,44.03
2019-05-07T20:01:25.970Z,44.10
2019-05-07T20:04:02.576Z,44.08
2019-05-07T20:06:35.352Z,44.08
2019-05-07T20:09:13.056Z,44.08
2019-05-07T20:11:49.456Z,44.05
2019-05-07T20:14:22.433Z,44.00
2019-05-07T20:16:55.378Z,44.03
2019-05-07T20:19:28.233Z,44.07
2019-05-07T20:22:02.129Z,44.07
2019-05-07T20:24:35.069Z,44.07
2019-05-07T20:27:07.500Z,44.12
2019-05-07T20:29:40.095Z,44.11
2019-05-07T20:32:12.709Z,44.13
2019-05-07T20:34:47.967Z,44.16
2019-05-07T20:37:22.012Z,44.16
2019-05-07T20:39:56.977Z,44.27
2019-05-07T20:42:29.475Z,44.25
2019-05-07T20:45:03.024Z,44.30
2019-05-07T20:47:36.078Z,44.34
2019-05-07T20:50:09.300Z,44.36
2019-05-07T20:52:42.766Z,44.44
2019-05-07T20:55:30.827Z,44.49
2019-05-07T20:58:03.232Z,44.58
2019-05-07T21:00:36.268Z,44.66
2019-05-07T21:03:23.425Z,44.66
2019-05-07T21:05:55.754Z,44.67
2019-05-07T21:08:28.551Z,44.63
2019-05-07T21:11:02.505Z,44.62
2019-05-07T21:13:35.558Z,44.60
2019-05-07T21:16:08.015Z,44.59
2019-05-07T21:18:42.117Z,44.61
2019-05-07T21:21:14.935Z,44.66
2019-05-07T21:23:47.438Z,44.70
2019-05-07T21:26:22.271Z,44.73
2019-05-07T21:28:54.343Z,44.73
2019-05-07T21:31:26.804Z,44.72
2019-05-07T21:33:59.481Z,44.71
2019-05-07T21:36:32.540Z,44.72
2019-05-07T21:39:07.054Z,44.75
2019-05-07T21:41:39.470Z,44.75
2019-05-07T21:44:12.391Z,44.78
2019-05-07T21:46:44.795Z,44.82
2019-05-07T21:49:17.803Z,44.86
2019-05-07T21:51:52.318Z,44.83
2019-05-07T21:54:43.628Z,44.84
2019-05-07T21:57:33.010Z,44.92
2019-05-07T22:00:22.131Z,44.99
2019-05-07T22:02:54.704Z,45.09
2019-05-07T22:05:27.143Z,45.18
2019-05-07T22:08:01.816Z,45.19
2019-05-07T22:10:34.515Z,45.21
2019-05-07T22:13:06.945Z,45.19
2019-05-07T22:15:39.624Z,45.19
2019-05-07T22:18:12.700Z,45.18
2019-05-07T22:20:45.181Z,45.20
2019-05-07T22:23:17.559Z,45.22
2019-05-07T22:25:50.126Z,45.31
2019-05-07T22:28:22.572Z,45.40
2019-05-07T22:31:14.056Z,45.38
2019-05-07T22:34:04.071Z,45.40
2019-05-07T22:36:36.731Z,45.42
2019-05-07T22:39:09.978Z,45.42
2019-05-07T22:41:42.605Z,45.41
2019-05-07T22:44:15.590Z,45.45
2019-05-07T22:46:48.228Z,45.50
2019-05-07T22:49:22.915Z,45.50
2019-05-07T22:51:55.489Z,45.50
2019-05-07T22:54:28.334Z,45.51
2019-05-07T22:57:14.200Z,45.49
2019-05-07T22:59:46.715Z,45.47
2019-05-07T23:02:20.032Z,45.46
2019-05-07T23:04:52.983Z,45.46
2019-05-07T23:07:25.600Z,45.43
2019-05-07T23:09:58.048Z,45.47
2019-05-07T23:12:32.658Z,45.42
2019-05-07T23:15:05.191Z,45.49
2019-05-07T23:17:38.038Z,45.51
2019-05-07T23:20:11.152Z,45.51
2019-05-07T23:22:44.437Z,45.53
2019-05-07T23:25:17.016Z,45.56
2019-05-07T23:27:49.400Z,45.57
2019-05-07T23:30:22.430Z,45.53
2019-05-07T23:32:55.210Z,45.52
2019-05-07T23:35:27.583Z,45.53
2019-05-07T23:38:02.462Z,45.50
2019-05-07T23:40:58.715Z,45.52
2019-05-07T23:43:31.405Z,45.53
2019-05-07T23:46:04.235Z,45.53
2019-05-07T23:48:36.812Z,45.54
2019-05-07T23:51:09.342Z,45.62
2019-05-07T23:53:44.173Z,45.59
2019-05-07T23:56:16.503Z,45.66
2019-05-07T23:58:49.227Z,45.72
